Overton, Alabama
Current Conditions -  °F | °C
As of 11:30 AM on Sunday 23 Nov 2014 (Local Time) from KBHM Reporting Station
Thunderstorm Thunderstorm  
Wind Chill: 59°   Ceiling: 2900
Heat Index: 59°   Visibility: 1.7mi
Dew Point: 57°   Wind: 13mph
Humidity: 93%   Direction: 120°ESE
Pressure: 29.71"   Gusts: 23mph
Location:  33.5393°N, 86.6626°W
Report Text: KBHM 231730Z 12011G20KT 1 3/4SM VCTS -RA BR SCT011 BKN029 OVC055 15/14 A2971 RMK AO2 LTG DSNT N AND NE TSE03B08 TS NE MOV N P0018 T01500139
Loading
Personal Weather Stations






























Interactive Weather Map New forecast layout! Learn more

10-Day Weather Forecast

Advertisements
Track Severe Weather on mobile